Terminal Aerodrome Forecast
Issued by NWS Paducah, KY

Home | Current Version | Previous Version | Text Only | Print | Product List | Glossary On
Versions: 1 2 3 4 5 6 7 8 9 10 11 12 13 14
303
FTUS43 KPAH 291454 AAA
TAFPAH
TAF AMD
KPAH 291454Z 2915/3012 21009G16KT P6SM BKN060
     FM300000 18009KT P6SM BKN150
     FM300700 18006KT P6SM BKN025=

USA.gov is the U.S. government's official web portal to all federal, state and local government web resources and services.